Time;durP1;ratioP1;P1;durP2;ratioP2;P2;SDS_P1;SDS_P2;PMS_P1;PMS_P2;Temp;Humidity;BMP_temperature;BMP_pressure;BME280_temperature;BME280_humidity;BME280_pressure;Samples;Min_cycle;Max_cycle;Signal;HPM_P1;HPM_P2
2022/04/03 00:03:35;;;;;;;2.40;2.20;;;;;3.00;96042.00;;;;8408786;28;20312;-68
2022/04/03 00:07:38;;;;;;;2.13;1.97;;;;;3.00;96045.00;;;;8401202;28;20831;-67
2022/04/03 00:11:41;;;;;;;4.10;3.33;;;;;3.00;96045.00;;;;8407904;28;20236;-67
2022/04/03 00:15:45;;;;;;;2.70;2.30;;;;;2.90;96045.00;;;;8404006;28;20824;-68
2022/04/03 00:19:50;;;;;;;5.37;3.10;;;;;3.00;96045.00;;;;8405073;28;20238;-67
2022/04/03 00:23:53;;;;;;;3.07;2.63;;;;;2.90;96047.00;;;;8396491;28;20232;-67
2022/04/03 00:27:57;;;;;;;4.70;2.70;;;;;2.90;96059.00;;;;8402706;28;20287;-68
2022/04/03 00:32:01;;;;;;;5.77;2.20;;;;;2.80;96053.00;;;;8407021;28;20234;-67
2022/04/03 00:36:06;;;;;;;1.70;1.60;;;;;2.80;96052.00;;;;8402817;28;21136;-68
2022/04/03 00:40:10;;;;;;;2.20;1.93;;;;;2.80;96052.00;;;;8400624;28;20315;-68
2022/04/03 00:44:14;;;;;;;2.23;1.57;;;;;2.80;96048.00;;;;8400704;28;20230;-67
2022/04/03 00:48:18;;;;;;;3.33;2.83;;;;;2.80;96049.00;;;;8401069;28;20793;-68
2022/04/03 00:52:23;;;;;;;2.50;1.57;;;;;2.80;96047.00;;;;8398851;28;20234;-68
2022/04/03 00:56:27;;;;;;;5.00;2.90;;;;;2.80;96050.00;;;;8404736;28;20232;-67
2022/04/03 01:00:30;;;;;;;3.13;2.63;;;;;2.90;96055.00;;;;8401843;28;20234;-68
2022/04/03 01:04:33;;;;;;;3.17;2.40;;;;;2.90;96054.00;;;;8400033;28;20226;-68
2022/04/03 01:08:38;;;;;;;6.93;3.03;;;;;2.90;96061.00;;;;8403734;28;20721;-68
2022/04/03 01:12:42;;;;;;;1.70;1.37;;;;;2.80;96058.00;;;;8400976;28;20241;-67
2022/04/03 01:16:53;;;;;;;2.27;2.07;;;;;2.80;96061.00;;;;8396512;28;20223;-67
2022/04/03 01:20:57;;;;;;;0.73;0.73;;;;;2.90;96059.00;;;;8405304;28;20240;-67
2022/04/03 01:25:02;;;;;;;2.33;2.13;;;;;2.90;96055.00;;;;8394691;28;20261;-67
2022/04/03 01:29:05;;;;;;;1.33;1.30;;;;;2.90;96059.00;;;;8397616;28;20246;-67
2022/04/03 01:33:09;;;;;;;2.93;2.60;;;;;2.90;96057.00;;;;8401176;28;20230;-66
2022/04/03 01:37:12;;;;;;;2.70;2.50;;;;;2.90;96057.00;;;;8405114;28;20234;-66
2022/04/03 01:41:16;;;;;;;2.37;1.87;;;;;2.80;96066.00;;;;8404404;28;20306;-66
2022/04/03 01:45:21;;;;;;;1.50;1.40;;;;;2.70;96060.00;;;;8390364;28;20227;-66
2022/04/03 01:49:24;;;;;;;2.87;2.40;;;;;2.70;96059.00;;;;8394369;28;20595;-66
2022/04/03 01:53:27;;;;;;;2.43;2.13;;;;;2.60;96064.00;;;;8403870;28;20232;-67
2022/04/03 01:57:32;;;;;;;1.73;1.63;;;;;2.60;96060.00;;;;8395337;28;20232;-67
2022/04/03 02:01:36;;;;;;;1.17;1.17;;;;;2.70;96059.00;;;;8406743;28;20232;-67
2022/04/03 02:05:40;;;;;;;1.83;1.73;;;;;2.70;96064.00;;;;8410470;28;20924;-67
2022/04/03 02:09:43;;;;;;;3.93;2.77;;;;;2.60;96067.00;;;;8405025;28;20836;-67
2022/04/03 02:13:48;;;;;;;2.50;1.30;;;;;2.60;96061.00;;;;8407534;28;20223;-66
2022/04/03 02:17:51;;;;;;;2.03;1.83;;;;;2.70;96067.00;;;;8406323;28;20224;-67
2022/04/03 02:21:54;;;;;;;1.10;1.10;;;;;2.70;96065.00;;;;8410073;28;20670;-66
2022/04/03 02:25:57;;;;;;;1.23;1.23;;;;;2.70;96068.00;;;;8403364;28;20230;-67
2022/04/03 02:30:02;;;;;;;1.90;1.80;;;;;2.70;96073.00;;;;8408527;28;20337;-68
2022/04/03 02:34:08;;;;;;;1.40;1.30;;;;;2.70;96071.00;;;;8405090;28;20228;-67
2022/04/03 02:38:12;;;;;;;0.93;0.93;;;;;2.70;96066.00;;;;8402743;28;20581;-67
2022/04/03 02:42:15;;;;;;;1.80;1.40;;;;;2.80;96073.00;;;;8375705;28;20231;-67
2022/04/03 02:46:19;;;;;;;1.90;1.73;;;;;2.80;96070.00;;;;8402603;28;20231;-68
2022/04/03 02:50:25;;;;;;;1.67;1.57;;;;;2.80;96080.00;;;;8405163;28;20268;-67
2022/04/03 02:54:28;;;;;;;0.67;0.67;;;;;2.70;96081.00;;;;8397099;28;20624;-67
2022/04/03 02:58:31;;;;;;;0.90;0.90;;;;;2.80;96082.00;;;;8390316;28;20226;-67
2022/04/03 03:02:35;;;;;;;1.50;1.37;;;;;2.80;96081.00;;;;8428988;22;20226;-67
2022/04/03 03:06:39;;;;;;;0.83;0.83;;;;;2.80;96091.00;;;;8364985;28;20282;-67
2022/04/03 03:10:42;;;;;;;0.90;0.90;;;;;2.90;96088.00;;;;8362441;28;20233;-66
2022/04/03 03:14:45;;;;;;;0.90;0.90;;;;;2.90;96093.00;;;;8367227;28;20315;-67
2022/04/03 03:18:49;;;;;;;0.70;0.70;;;;;2.90;96086.00;;;;8372546;28;20258;-67
2022/04/03 03:22:53;;;;;;;1.43;1.33;;;;;2.90;96083.00;;;;8369105;28;20617;-66
2022/04/03 03:27:03;;;;;;;0.70;0.70;;;;;2.90;96085.00;;;;8370451;28;20234;-66
2022/04/03 03:31:06;;;;;;;0.50;0.50;;;;;2.90;96092.00;;;;8369707;28;20252;-68
2022/04/03 03:35:11;;;;;;;0.40;0.40;;;;;2.90;96088.00;;;;8371923;28;20353;-68
2022/04/03 03:39:16;;;;;;;0.40;0.40;;;;;2.90;96091.00;;;;8366655;28;20236;-68
2022/04/03 03:43:20;;;;;;;0.40;0.40;;;;;2.90;96093.00;;;;8373572;28;20241;-67
2022/04/03 03:47:23;;;;;;;0.40;0.40;;;;;2.90;96087.00;;;;8364028;28;20264;-68
2022/04/03 03:51:27;;;;;;;0.40;0.40;;;;;2.90;96096.00;;;;8367449;28;20222;-68
2022/04/03 03:55:31;;;;;;;0.50;0.50;;;;;2.90;96098.00;;;;8374132;28;20255;-68
2022/04/03 03:59:34;;;;;;;0.40;0.40;;;;;2.90;96111.00;;;;8370823;28;20316;-68
2022/04/03 04:03:37;;;;;;;0.40;0.40;;;;;2.90;96112.00;;;;8358473;28;20234;-67
2022/04/03 04:07:44;;;;;;;0.40;0.40;;;;;2.90;96114.00;;;;8343487;28;20236;-68
2022/04/03 04:11:47;;;;;;;0.40;0.40;;;;;2.90;96118.00;;;;8343178;28;20238;-68
2022/04/03 04:15:50;;;;;;;0.70;0.70;;;;;2.90;96123.00;;;;8341401;28;20229;-67
2022/04/03 04:19:53;;;;;;;0.40;0.40;;;;;2.80;96130.00;;;;8339170;28;20324;-67
2022/04/03 04:23:58;;;;;;;0.40;0.40;;;;;2.80;96137.00;;;;8347418;28;20858;-69
2022/04/03 04:28:02;;;;;;;0.40;0.40;;;;;2.80;96142.00;;;;8339941;28;20227;-69
2022/04/03 04:32:07;;;;;;;0.87;0.87;;;;;2.80;96138.00;;;;8345355;28;20605;-69
2022/04/03 04:36:10;;;;;;;0.40;0.40;;;;;2.90;96145.00;;;;8338542;28;20781;-69
2022/04/03 04:40:15;;;;;;;0.40;0.40;;;;;2.90;96141.00;;;;8339394;28;20231;-69
2022/04/03 04:44:18;;;;;;;0.53;0.53;;;;;2.90;96142.00;;;;8347590;28;20220;-68
2022/04/03 04:48:21;;;;;;;1.00;1.00;;;;;2.80;96149.00;;;;8339756;28;20229;-70
2022/04/03 04:52:24;;;;;;;0.60;0.60;;;;;2.80;96154.00;;;;8336811;28;20285;-70
2022/04/03 04:56:31;;;;;;;0.87;0.87;;;;;2.80;96156.00;;;;8338961;28;20644;-68
2022/04/03 05:00:34;;;;;;;0.73;0.73;;;;;2.80;96154.00;;;;8341072;28;20233;-68
2022/04/03 05:04:38;;;;;;;1.57;1.47;;;;;2.80;96172.00;;;;8339770;28;20265;-67
2022/04/03 05:08:42;;;;;;;1.43;1.30;;;;;2.70;96176.00;;;;8343929;28;20228;-71
2022/04/03 05:12:51;;;;;;;2.23;2.03;;;;;2.70;96175.00;;;;8347086;28;20233;-69
2022/04/03 05:16:54;;;;;;;1.90;1.80;;;;;2.70;96175.00;;;;8350675;28;20224;-70
2022/04/03 05:20:57;;;;;;;1.97;1.77;;;;;2.70;96169.00;;;;8340958;28;20235;-71
2022/04/03 05:25:03;;;;;;;1.70;1.60;;;;;2.70;96175.00;;;;8343879;28;20231;-70
2022/04/03 05:29:08;;;;;;;2.03;1.90;;;;;2.70;96190.00;;;;8333368;28;20722;-69
2022/04/03 05:33:12;;;;;;;1.40;1.30;;;;;2.70;96196.00;;;;8343923;28;20233;-70
2022/04/03 05:37:15;;;;;;;1.80;1.70;;;;;2.70;96194.00;;;;8309255;28;20225;-70
2022/04/03 05:41:18;;;;;;;1.97;1.87;;;;;2.60;96191.00;;;;8314697;28;20577;-70
2022/04/03 05:45:22;;;;;;;2.43;1.60;;;;;2.60;96203.00;;;;8316758;28;20722;-69
2022/04/03 05:49:25;;;;;;;1.67;1.57;;;;;2.50;96199.00;;;;8307952;28;20705;-70
2022/04/03 05:53:29;;;;;;;1.33;1.33;;;;;2.50;96202.00;;;;8314780;28;20485;-70
2022/04/03 05:57:32;;;;;;;2.27;1.67;;;;;2.40;96211.00;;;;8314394;28;20310;-70
2022/04/03 06:01:37;;;;;;;1.40;1.40;;;;;2.40;96217.00;;;;8298212;28;20224;-69
2022/04/03 06:05:47;;;;;;;2.47;2.27;;;;;2.30;96221.00;;;;8307365;28;20263;-69
2022/04/03 06:09:50;;;;;;;1.33;1.33;;;;;2.20;96228.00;;;;8266372;28;20236;-69
2022/04/03 06:13:53;;;;;;;2.03;1.77;;;;;2.20;96233.00;;;;8309514;28;20740;-69
2022/04/03 06:17:57;;;;;;;2.50;2.10;;;;;2.20;96237.00;;;;8313972;28;20230;-69
2022/04/03 06:22:01;;;;;;;2.03;1.83;;;;;2.20;96241.00;;;;8306535;28;20235;-70
2022/04/03 06:26:04;;;;;;;2.30;2.10;;;;;2.10;96242.00;;;;8304125;28;20311;-70
2022/04/03 06:30:09;;;;;;;2.50;2.30;;;;;2.10;96246.00;;;;8322924;28;20609;-69
2022/04/03 06:34:13;;;;;;;2.20;2.00;;;;;2.10;96253.00;;;;8315567;28;20315;-69
2022/04/03 06:38:18;;;;;;;5.43;2.07;;;;;2.00;96259.00;;;;8316321;28;20244;-69
2022/04/03 06:42:21;;;;;;;3.10;2.63;;;;;2.00;96264.00;;;;8323345;28;20637;-69
2022/04/03 06:46:25;;;;;;;2.70;1.73;;;;;1.90;96257.00;;;;8326520;28;20237;-70
2022/04/03 06:50:30;;;;;;;2.83;2.23;;;;;1.90;96254.00;;;;8318093;28;20679;-69
2022/04/03 06:54:33;;;;;;;3.93;2.07;;;;;1.90;96269.00;;;;8316185;28;20312;-69
2022/04/03 06:58:37;;;;;;;5.30;2.47;;;;;1.70;96271.00;;;;8320283;28;20242;-69
2022/04/03 07:02:40;;;;;;;4.87;1.57;;;;;1.70;96281.00;;;;8317101;28;20234;-68
2022/04/03 07:06:45;;;;;;;4.63;2.30;;;;;1.60;96280.00;;;;8329073;28;20230;-69
2022/04/03 07:10:49;;;;;;;3.47;2.37;;;;;1.60;96277.00;;;;8311005;28;20313;-67
2022/04/03 07:14:52;;;;;;;1.33;1.33;;;;;1.70;96287.00;;;;8320836;28;20252;-68
2022/04/03 07:18:56;;;;;;;2.40;1.73;;;;;1.80;96282.00;;;;8330348;28;21028;-68
2022/04/03 07:23:01;;;;;;;2.17;1.97;;;;;1.90;96289.00;;;;8319990;28;20219;-67
2022/04/03 07:27:04;;;;;;;1.67;1.53;;;;;1.90;96292.00;;;;8306422;28;20821;-66
2022/04/03 07:31:08;;;;;;;2.13;1.87;;;;;2.00;96297.00;;;;8310970;28;20238;-68
2022/04/03 07:35:12;;;;;;;2.87;2.37;;;;;2.00;96304.00;;;;8316446;28;20266;-68
2022/04/03 07:39:17;;;;;;;7.47;3.07;;;;;2.00;96301.00;;;;8319762;28;20232;-67
2022/04/03 07:43:20;;;;;;;2.60;2.37;;;;;2.10;96307.00;;;;8320733;28;21012;-67
2022/04/03 07:47:24;;;;;;;4.50;3.10;;;;;2.10;96309.00;;;;8316442;28;20226;-67
2022/04/03 07:51:27;;;;;;;2.97;2.37;;;;;2.20;96308.00;;;;8318127;28;20225;-68
2022/04/03 07:55:32;;;;;;;3.93;3.17;;;;;2.30;96314.00;;;;8300673;28;20226;-68
2022/04/03 07:59:35;;;;;;;2.87;2.47;;;;;2.30;96320.00;;;;8310641;28;20585;-68
2022/04/03 08:03:39;;;;;;;2.87;2.67;;;;;2.40;96332.00;;;;8324653;28;20232;-68
2022/04/03 08:07:44;;;;;;;1.80;1.70;;;;;2.50;96330.00;;;;8312430;28;20586;-67
2022/04/03 08:11:49;;;;;;;5.00;3.03;;;;;2.50;96336.00;;;;8311650;28;20242;-67
2022/04/03 08:15:52;;;;;;;3.07;2.77;;;;;2.60;96341.00;;;;8317061;28;20253;-67
2022/04/03 08:19:55;;;;;;;3.57;2.50;;;;;2.70;96349.00;;;;8313242;28;20241;-66
2022/04/03 08:23:59;;;;;;;1.80;1.70;;;;;2.70;96350.00;;;;8313760;28;20230;-65
2022/04/03 08:28:05;;;;;;;7.17;5.00;;;;;2.70;96354.00;;;;8312705;28;20225;-66
2022/04/03 08:32:08;;;;;;;4.43;3.07;;;;;2.70;96351.00;;;;8300341;28;20322;-66
2022/04/03 08:36:11;;;;;;;3.03;2.73;;;;;2.80;96369.00;;;;8309646;28;20298;-66
2022/04/03 08:40:15;;;;;;;7.40;4.43;;;;;2.80;96361.00;;;;8319490;28;20250;-66
2022/04/03 08:44:20;;;;;;;5.90;4.40;;;;;2.70;96369.00;;;;8304548;28;20243;-66
2022/04/03 08:48:24;;;;;;;5.80;4.17;;;;;2.60;96371.00;;;;8276887;28;20233;-65
2022/04/03 08:52:28;;;;;;;6.63;4.60;;;;;2.40;96380.00;;;;8271057;28;20235;-66
2022/04/03 08:56:31;;;;;;;6.57;4.73;;;;;2.30;96374.00;;;;8270464;28;20925;-68
2022/04/03 09:00:36;;;;;;;8.53;5.00;;;;;2.30;96386.00;;;;8283133;28;20254;-67
2022/04/03 09:04:44;;;;;;;10.20;5.47;;;;;2.40;96390.00;;;;8270429;28;20241;-67
2022/04/03 09:08:48;;;;;;;12.57;5.83;;;;;2.40;96385.00;;;;8288168;28;20232;-68
2022/04/03 09:12:52;;;;;;;8.77;4.97;;;;;2.40;96382.00;;;;8281064;28;20230;-68
2022/04/03 09:16:56;;;;;;;11.50;6.30;;;;;2.40;96381.00;;;;8274445;28;20243;-69
2022/04/03 09:21:00;;;;;;;7.33;4.77;;;;;2.50;96383.00;;;;8286651;28;21122;-68
2022/04/03 09:25:04;;;;;;;13.87;5.87;;;;;2.50;96390.00;;;;8284131;28;21537;-69
2022/04/03 09:29:09;;;;;;;18.83;5.33;;;;;2.60;96394.00;;;;8282547;28;20578;-69
2022/04/03 09:33:22;;;;;;;6.27;4.37;;;;;2.70;96390.00;;;;8285361;28;20237;-69
2022/04/03 09:37:26;;;;;;;5.60;4.77;;;;;2.80;96394.00;;;;8292431;28;20229;-69
2022/04/03 09:41:29;;;;;;;10.17;5.30;;;;;2.80;96392.00;;;;8309821;28;20790;-69
2022/04/03 09:45:32;;;;;;;13.67;5.63;;;;;2.80;96397.00;;;;8300917;28;20839;-69
2022/04/03 09:49:37;;;;;;;9.10;5.23;;;;;2.70;96388.00;;;;8321551;28;20236;-68
2022/04/03 09:53:45;;;;;;;7.90;5.47;;;;;2.60;96398.00;;;;8314342;28;20316;-68
2022/04/03 09:57:49;;;;;;;9.43;5.50;;;;;2.60;96391.00;;;;8301620;28;20315;-68
2022/04/03 10:02:14;;;;;;;10.63;5.30;;;;;2.70;96388.00;;;;8327586;28;20327;-66
2022/04/03 10:06:20;;;;;;;8.20;5.50;;;;;2.90;96393.00;;;;8322152;28;20327;-67
2022/04/03 10:10:26;;;;;;;10.47;5.37;;;;;2.90;96395.00;;;;8313769;28;20406;-67
2022/04/03 10:14:29;;;;;;;7.83;4.27;;;;;2.90;96401.00;;;;8313684;28;20220;-66
2022/04/03 10:18:34;;;;;;;10.70;4.93;;;;;2.90;96403.00;;;;8307791;28;20235;-67
2022/04/03 10:22:40;;;;;;;6.33;3.97;;;;;2.90;96393.00;;;;8299354;28;20305;-67
2022/04/03 10:26:50;;;;;;;14.30;5.37;;;;;3.00;96397.00;;;;8320854;28;20968;-67
2022/04/03 10:31:00;;;;;;;6.50;3.93;;;;;3.10;96396.00;;;;8326240;28;20588;-67
2022/04/03 10:35:06;;;;;;;9.40;5.53;;;;;3.20;96390.00;;;;8326270;28;20227;-67
2022/04/03 10:39:10;;;;;;;8.63;5.93;;;;;3.10;96389.00;;;;8326770;28;20222;-67
2022/04/03 10:43:27;;;;;;;9.37;4.40;;;;;3.00;96392.00;;;;8320078;28;20763;-67
2022/04/03 10:47:30;;;;;;;9.53;5.30;;;;;3.10;96397.00;;;;8321371;28;20730;-68
2022/04/03 10:51:35;;;;;;;8.47;4.40;;;;;3.10;96398.00;;;;8337639;28;20229;-67
2022/04/03 10:55:39;;;;;;;6.53;4.03;;;;;3.10;96395.00;;;;8324910;28;20309;-67
2022/04/03 10:59:43;;;;;;;10.37;4.50;;;;;3.10;96401.00;;;;8317376;28;20228;-67
2022/04/03 11:03:54;;;;;;;11.70;4.07;;;;;3.10;96406.00;;;;8324168;28;20918;-66
2022/04/03 11:08:18;;;;;;;6.97;4.97;;;;;3.10;96403.00;;;;8320849;28;20220;-67
2022/04/03 11:12:55;;;;;;;7.03;4.33;;;;;3.00;96385.00;;;;8354183;28;20614;-66
2022/04/03 11:16:58;;;;;;;14.33;6.20;;;;;3.00;96388.00;;;;8353405;28;20227;-67
2022/04/03 11:21:09;;;;;;;11.07;6.37;;;;;3.00;96382.00;;;;8350852;28;20230;-68
2022/04/03 11:25:12;;;;;;;10.23;4.57;;;;;2.80;96384.00;;;;8350203;28;20246;-67
2022/04/03 11:29:18;;;;;;;3.53;2.33;;;;;2.80;96378.00;;;;8359632;28;20234;-67
2022/04/03 11:33:21;;;;;;;10.33;4.67;;;;;3.00;96383.00;;;;8355734;28;20234;-67
2022/04/03 11:37:25;;;;;;;7.03;4.67;;;;;3.10;96383.00;;;;8354437;28;20228;-68
2022/04/03 11:41:31;;;;;;;5.23;4.20;;;;;3.20;96385.00;;;;8356076;28;20227;-68
2022/04/03 11:45:40;;;;;;;3.40;3.10;;;;;3.30;96374.00;;;;8356200;28;20266;-67
2022/04/03 11:49:44;;;;;;;5.03;3.73;;;;;3.40;96378.00;;;;8341627;28;20223;-67
2022/04/03 11:53:49;;;;;;;7.33;4.83;;;;;3.30;96377.00;;;;8348935;28;20604;-67
2022/04/03 11:57:54;;;;;;;13.27;4.50;;;;;3.10;96378.00;;;;8355860;28;20234;-68
2022/04/03 12:01:59;;;;;;;11.37;4.97;;;;;3.10;96375.00;;;;8346249;28;20241;-66
2022/04/03 12:06:13;;;;;;;3.20;2.17;;;;;3.20;96377.00;;;;8344693;28;20877;-66
2022/04/03 12:10:25;;;;;;;7.33;4.90;;;;;3.30;96371.00;;;;8346337;28;20235;-66
2022/04/03 12:14:30;;;;;;;2.70;2.50;;;;;3.40;96372.00;;;;8348642;28;20230;-66
2022/04/03 12:18:55;;;;;;;9.27;4.97;;;;;3.30;96372.00;;;;8347424;28;20318;-67
2022/04/03 12:22:58;;;;;;;6.37;4.40;;;;;3.20;96376.00;;;;8347489;28;20245;-68
2022/04/03 12:27:03;;;;;;;7.13;4.60;;;;;3.20;96379.00;;;;8341417;28;20231;-67
2022/04/03 12:31:13;;;;;;;10.93;4.30;;;;;3.10;96381.00;;;;8341888;28;20316;-66
2022/04/03 12:35:18;;;;;;;6.27;4.43;;;;;3.10;96385.00;;;;8344934;28;20226;-68
2022/04/03 12:39:39;;;;;;;6.07;3.80;;;;;3.00;96374.00;;;;8347987;28;20252;-68
2022/04/03 12:43:45;;;;;;;7.60;4.40;;;;;3.10;96376.00;;;;8353573;28;20217;-68
2022/04/03 12:47:50;;;;;;;8.70;5.07;;;;;3.10;96378.00;;;;8349116;28;20221;-68
2022/04/03 12:51:54;;;;;;;4.80;3.87;;;;;3.00;96376.00;;;;8353417;28;20229;-66
2022/04/03 12:55:58;;;;;;;7.17;4.00;;;;;2.90;96372.00;;;;8357694;28;20227;-67
2022/04/03 13:00:01;;;;;;;4.43;3.00;;;;;2.80;96375.00;;;;8356212;28;20235;-68
2022/04/03 13:04:05;;;;;;;6.00;3.83;;;;;2.90;96363.00;;;;8347965;28;20224;-68
2022/04/03 13:08:12;;;;;;;7.50;3.80;;;;;3.00;96366.00;;;;8358824;28;20254;-67
2022/04/03 13:12:15;;;;;;;5.13;3.53;;;;;3.10;96359.00;;;;8352669;28;20242;-67
2022/04/03 13:16:18;;;;;;;4.10;3.03;;;;;3.20;96358.00;;;;8369211;28;20663;-68
2022/04/03 13:20:22;;;;;;;7.80;2.60;;;;;3.30;96356.00;;;;8348109;28;20232;-66
2022/04/03 13:24:28;;;;;;;2.27;2.00;;;;;3.40;96359.00;;;;8349761;28;20227;-66
2022/04/03 13:28:31;;;;;;;7.67;2.50;;;;;3.60;96356.00;;;;8356043;28;20238;-66
2022/04/03 13:32:34;;;;;;;7.33;3.27;;;;;3.60;96353.00;;;;8354433;28;20744;-66
2022/04/03 13:36:38;;;;;;;3.47;2.53;;;;;3.60;96365.00;;;;8353363;28;20676;-66
2022/04/03 13:40:42;;;;;;;2.57;2.20;;;;;3.70;96360.00;;;;8353585;28;20231;-66
2022/04/03 13:44:46;;;;;;;2.73;2.43;;;;;3.60;96348.00;;;;8357943;28;20326;-66
2022/04/03 13:48:49;;;;;;;4.53;2.00;;;;;3.70;96345.00;;;;8357776;28;20255;-65
2022/04/03 13:52:52;;;;;;;5.43;3.63;;;;;3.50;96341.00;;;;8358003;28;20725;-65
2022/04/03 13:56:57;;;;;;;11.53;3.60;;;;;3.50;96347.00;;;;8351934;28;21002;-65
2022/04/03 14:01:00;;;;;;;7.40;3.33;;;;;3.40;96343.00;;;;8353256;28;20314;-64
2022/04/03 14:05:04;;;;;;;4.73;3.13;;;;;3.40;96344.00;;;;8361191;28;20228;-65
2022/04/03 14:09:07;;;;;;;3.30;2.60;;;;;3.40;96345.00;;;;8365107;28;20598;-65
2022/04/03 14:13:12;;;;;;;2.63;2.40;;;;;3.50;96340.00;;;;8358090;28;20231;-64
2022/04/03 14:17:15;;;;;;;3.57;2.63;;;;;3.70;96344.00;;;;8353612;28;20232;-65
2022/04/03 14:21:23;;;;;;;1.83;1.73;;;;;3.80;96341.00;;;;8345003;28;20311;-65
2022/04/03 14:25:26;;;;;;;3.73;2.30;;;;;3.80;96348.00;;;;8349393;28;20907;-64
2022/04/03 14:29:31;;;;;;;3.03;2.40;;;;;3.80;96350.00;;;;8341447;28;20749;-66
2022/04/03 14:33:34;;;;;;;5.53;3.17;;;;;3.80;96346.00;;;;8346090;28;20247;-66
2022/04/03 14:37:37;;;;;;;3.73;2.73;;;;;3.70;96344.00;;;;8345850;28;20246;-66
2022/04/03 14:41:41;;;;;;;5.83;3.53;;;;;3.60;96341.00;;;;8346168;28;20258;-66
2022/04/03 14:45:45;;;;;;;6.57;3.40;;;;;3.50;96352.00;;;;8351509;28;20671;-67
2022/04/03 14:49:48;;;;;;;9.40;3.27;;;;;3.50;96338.00;;;;8352375;28;20250;-66
2022/04/03 14:53:51;;;;;;;7.47;3.40;;;;;3.50;96347.00;;;;8349380;28;20655;-66
2022/04/03 14:57:55;;;;;;;9.07;3.63;;;;;3.40;96340.00;;;;8344841;28;20238;-66
2022/04/03 15:02:00;;;;;;;3.20;2.90;;;;;3.30;96341.00;;;;8346596;28;20226;-66
2022/04/03 15:06:03;;;;;;;3.10;2.80;;;;;3.30;96340.00;;;;8357923;28;20978;-66
2022/04/03 15:10:08;;;;;;;5.67;3.20;;;;;3.40;96336.00;;;;8356573;28;20238;-67
2022/04/03 15:14:11;;;;;;;3.27;2.80;;;;;3.60;96346.00;;;;8351966;28;20235;-67
2022/04/03 15:18:16;;;;;;;4.60;3.13;;;;;3.60;96347.00;;;;8346389;28;20232;-67
2022/04/03 15:22:20;;;;;;;4.00;2.77;;;;;3.60;96348.00;;;;8346855;28;20232;-67
2022/04/03 15:26:23;;;;;;;5.87;3.50;;;;;3.60;96354.00;;;;8348085;28;20223;-67
2022/04/03 15:30:27;;;;;;;4.47;3.20;;;;;3.40;96355.00;;;;8353945;28;20237;-67
2022/04/03 15:34:31;;;;;;;3.77;3.37;;;;;3.20;96360.00;;;;8348407;28;20235;-67
2022/04/03 15:38:37;;;;;;;3.10;2.80;;;;;3.10;96360.00;;;;8352017;28;20240;-68
2022/04/03 15:42:41;;;;;;;2.70;2.50;;;;;3.00;96367.00;;;;8358465;28;20238;-69
2022/04/03 15:46:44;;;;;;;3.97;2.77;;;;;2.90;96363.00;;;;8352451;28;20766;-68
2022/04/03 15:50:49;;;;;;;3.10;2.80;;;;;3.00;96359.00;;;;8349933;28;20243;-68
2022/04/03 15:54:53;;;;;;;3.37;2.80;;;;;3.00;96371.00;;;;8347402;28;20329;-65
2022/04/03 15:58:56;;;;;;;6.60;5.40;;;;;3.10;96364.00;;;;8344126;28;20297;-67
2022/04/03 16:02:59;;;;;;;3.70;2.70;;;;;3.20;96381.00;;;;8345787;28;20254;-67
2022/04/03 16:07:04;;;;;;;20.80;16.00;;;;;3.20;96368.00;;;;8343819;28;20335;-67
2022/04/03 16:11:07;;;;;;;3.10;2.80;;;;;3.30;96370.00;;;;8346577;28;20946;-69
2022/04/03 16:15:12;;;;;;;3.73;2.90;;;;;3.30;96370.00;;;;8345365;28;20246;-68
2022/04/03 16:19:15;;;;;;;3.70;2.83;;;;;3.30;96376.00;;;;8335688;28;20220;-69
2022/04/03 16:23:20;;;;;;;3.40;2.80;;;;;3.30;96373.00;;;;8345782;28;20231;-69
2022/04/03 16:27:26;;;;;;;5.40;2.90;;;;;3.20;96371.00;;;;8347483;28;20224;-68
2022/04/03 16:31:33;;;;;;;5.37;2.83;;;;;3.10;96383.00;;;;8334051;28;20327;-68
2022/04/03 16:35:38;;;;;;;3.73;2.43;;;;;3.00;96387.00;;;;8335695;28;20232;-69
2022/04/03 16:39:43;;;;;;;7.30;2.33;;;;;2.90;96387.00;;;;8356026;28;20221;-68
2022/04/03 16:43:46;;;;;;;4.57;2.40;;;;;2.80;96391.00;;;;8349151;28;20226;-67
2022/04/03 16:47:50;;;;;;;2.63;2.43;;;;;2.80;96389.00;;;;8352862;28;20230;-67
2022/04/03 16:51:53;;;;;;;4.10;2.37;;;;;2.80;96389.00;;;;8353790;28;20268;-68
2022/04/03 16:55:58;;;;;;;7.30;4.60;;;;;2.80;96387.00;;;;8351006;28;20255;-68
2022/04/03 17:00:01;;;;;;;3.37;2.67;;;;;2.80;96389.00;;;;8350157;28;20672;-68
2022/04/03 17:04:05;;;;;;;4.00;2.80;;;;;2.80;96398.00;;;;8358744;28;20318;-68
2022/04/03 17:08:08;;;;;;;2.67;2.40;;;;;2.80;96389.00;;;;8363261;28;20229;-68
2022/04/03 17:12:13;;;;;;;3.30;2.37;;;;;2.90;96388.00;;;;8351257;28;20320;-69
2022/04/03 17:16:17;;;;;;;2.90;2.47;;;;;2.90;96400.00;;;;8357919;28;20226;-69
2022/04/03 17:20:21;;;;;;;6.20;2.90;;;;;2.80;96400.00;;;;8358214;28;20237;-68
2022/04/03 17:24:24;;;;;;;5.37;2.80;;;;;2.80;96415.00;;;;8351808;28;20303;-68
2022/04/03 17:28:30;;;;;;;3.57;2.67;;;;;2.70;96410.00;;;;8356957;28;20250;-67
2022/04/03 17:32:33;;;;;;;3.03;2.80;;;;;2.70;96418.00;;;;8351670;28;20704;-68
2022/04/03 17:36:36;;;;;;;3.43;3.03;;;;;2.70;96420.00;;;;8357667;28;20748;-68
2022/04/03 17:40:39;;;;;;;4.40;2.67;;;;;2.70;96423.00;;;;8360971;28;20223;-70
2022/04/03 17:44:44;;;;;;;2.60;2.40;;;;;2.70;96425.00;;;;8351593;28;20947;-70
2022/04/03 17:48:47;;;;;;;4.87;2.80;;;;;2.70;96428.00;;;;8353764;28;20686;-70
2022/04/03 17:52:50;;;;;;;4.17;3.20;;;;;2.70;96431.00;;;;8355966;28;20230;-70
2022/04/03 17:56:53;;;;;;;6.03;3.30;;;;;2.70;96436.00;;;;8356054;28;20228;-71
2022/04/03 18:00:58;;;;;;;2.97;2.63;;;;;2.70;96434.00;;;;8345721;28;20694;-68
2022/04/03 18:05:01;;;;;;;5.00;2.50;;;;;2.70;96437.00;;;;8346986;28;20236;-70
2022/04/03 18:09:04;;;;;;;2.60;2.40;;;;;2.70;96439.00;;;;8349385;28;20568;-70
2022/04/03 18:13:09;;;;;;;7.67;4.50;;;;;2.70;96444.00;;;;8352175;28;20941;-69
2022/04/03 18:17:14;;;;;;;4.20;2.83;;;;;2.70;96441.00;;;;8358205;28;20228;-69
2022/04/03 18:21:18;;;;;;;8.07;4.00;;;;;2.70;96452.00;;;;8354079;28;20322;-70
2022/04/03 18:25:21;;;;;;;5.57;3.83;;;;;2.70;96448.00;;;;8353289;28;22811;-71
2022/04/03 18:29:24;;;;;;;5.80;3.03;;;;;2.70;96457.00;;;;8356559;28;20228;-71
2022/04/03 18:33:30;;;;;;;6.47;2.27;;;;;2.70;96461.00;;;;8348858;28;20653;-71
2022/04/03 18:37:33;;;;;;;7.10;3.57;;;;;2.70;96464.00;;;;8358107;28;20234;-70
2022/04/03 18:41:36;;;;;;;3.23;2.70;;;;;2.70;96463.00;;;;8352185;28;20250;-69
2022/04/03 18:45:40;;;;;;;7.60;3.17;;;;;2.70;96472.00;;;;8363053;28;20234;-70
2022/04/03 18:49:44;;;;;;;4.97;3.37;;;;;2.70;96477.00;;;;8350078;28;20340;-72
2022/04/03 18:53:48;;;;;;;5.33;3.40;;;;;2.70;96474.00;;;;8359219;28;20738;-72
2022/04/03 18:57:51;;;;;;;5.67;3.47;;;;;2.70;96489.00;;;;8352122;28;20653;-72
2022/04/03 19:01:56;;;;;;;5.30;3.50;;;;;2.70;96486.00;;;;8356870;28;20231;-71
2022/04/03 19:06:01;;;;;;;3.83;3.20;;;;;2.70;96487.00;;;;8356421;28;20232;-72
2022/04/03 19:10:06;;;;;;;5.93;4.10;;;;;2.70;96498.00;;;;8348660;28;20237;-72
2022/04/03 19:14:11;;;;;;;5.80;4.70;;;;;2.60;96497.00;;;;8347277;28;20256;-70
2022/04/03 19:18:15;;;;;;;7.63;4.73;;;;;2.60;96494.00;;;;8350136;28;20233;-70
2022/04/03 19:22:20;;;;;;;5.93;3.83;;;;;2.60;96499.00;;;;8348766;28;20306;-69
2022/04/03 19:26:23;;;;;;;3.07;2.80;;;;;2.60;96504.00;;;;8351581;28;20219;-69
2022/04/03 19:30:28;;;;;;;3.50;3.20;;;;;2.60;96500.00;;;;8348513;28;20223;-70
2022/04/03 19:34:31;;;;;;;7.20;4.43;;;;;2.60;96496.00;;;;8345913;28;20229;-73
2022/04/03 19:38:37;;;;;;;5.77;4.13;;;;;2.50;96499.00;;;;8350468;28;20229;-71
2022/04/03 19:42:40;;;;;;;3.60;3.30;;;;;2.50;96501.00;;;;8342504;28;20227;-72
2022/04/03 19:46:43;;;;;;;5.07;3.43;;;;;2.50;96504.00;;;;8341851;28;20618;-70
2022/04/03 19:50:47;;;;;;;5.47;4.17;;;;;2.50;96506.00;;;;8346996;28;20730;-72
2022/04/03 19:54:51;;;;;;;5.13;3.40;;;;;2.50;96507.00;;;;8345690;28;20228;-74
2022/04/03 19:58:54;;;;;;;4.60;3.97;;;;;2.50;96512.00;;;;8344804;28;20218;-71
2022/04/03 20:02:57;;;;;;;5.00;3.60;;;;;2.50;96505.00;;;;8342781;28;20237;-69
2022/04/03 20:07:01;;;;;;;5.03;3.20;;;;;2.50;96504.00;;;;8350396;28;20703;-70
2022/04/03 20:11:05;;;;;;;6.50;3.77;;;;;2.40;96506.00;;;;8348181;28;20315;-70
2022/04/03 20:15:10;;;;;;;7.33;3.53;;;;;2.30;96508.00;;;;8345163;28;20661;-70
2022/04/03 20:19:13;;;;;;;4.83;3.43;;;;;2.30;96504.00;;;;8342484;28;21233;-71
2022/04/03 20:23:16;;;;;;;3.83;3.37;;;;;2.30;96509.00;;;;8346446;28;20943;-71
2022/04/03 20:27:22;;;;;;;4.83;3.40;;;;;2.20;96504.00;;;;8345944;28;20230;-71
2022/04/03 20:31:25;;;;;;;3.40;3.10;;;;;2.20;96512.00;;;;8349409;28;20235;-71
2022/04/03 20:35:31;;;;;;;5.37;3.60;;;;;2.10;96518.00;;;;8346184;28;20235;-71
2022/04/03 20:39:34;;;;;;;4.20;3.50;;;;;2.10;96522.00;;;;8346738;28;20234;-70